TimeCST,TemperatureF,Dew PointF,Humidity,Sea Level PressureIn,VisibilityMPH,Wind Direction,Wind SpeedMPH,Gust SpeedMPH,PrecipitationIn,Events,Conditions,WindDirDegrees,DateUTC
12:15 AM,14.7,12.6,91,30.20,10.0,NW,4.6,-,N/A,,Overcast,320,2013-01-01 06:15:00
12:35 AM,14.0,12.2,93,30.20,7.0,NW,3.5,-,N/A,,Overcast,320,2013-01-01 06:35:00
12:55 AM,13.6,11.5,91,30.20,7.0,NW,4.6,-,N/A,,Overcast,310,2013-01-01 06:55:00
1:15 AM,13.5,11.7,93,30.20,7.0,NW,4.6,-,N/A,,Overcast,310,2013-01-01 07:15:00
1:35 AM,13.6,11.5,91,30.21,7.0,NW,4.6,-,N/A,,Overcast,310,2013-01-01 07:35:00
1:55 AM,13.1,11.1,92,30.20,10.0,NW,5.8,-,N/A,,Mostly Cloudy,320,2013-01-01 07:55:00
2:15 AM,13.1,11.1,92,30.21,7.0,NW,5.8,-,N/A,,Mostly Cloudy,320,2013-01-01 08:15:00
2:35 AM,12.0,10.0,92,30.21,7.0,NW,5.8,-,N/A,,Scattered Clouds,320,2013-01-01 08:35:00
2:55 AM,12.2,10.4,92,30.22,7.0,NW,4.6,-,N/A,,Mostly Cloudy,320,2013-01-01 08:55:00
3:15 AM,12.4,10.4,92,30.22,7.0,NNW,4.6,-,N/A,,Overcast,330,2013-01-01 09:15:00
3:35 AM,12.2,10.4,92,30.22,7.0,North,3.5,-,N/A,,Mostly Cloudy,350,2013-01-01 09:35:00
3:55 AM,12.9,11.3,93,30.22,7.0,North,3.5,-,N/A,,Scattered Clouds,360,2013-01-01 09:55:00
4:15 AM,11.5,9.9,93,30.22,7.0,NNW,4.6,-,N/A,,Clear,340,2013-01-01 10:15:00
4:35 AM,10.0,7.7,90,30.22,7.0,NNW,5.8,-,N/A,,Clear,340,2013-01-01 10:35:00
4:55 AM,9.7,7.7,92,30.21,5.0,NNW,6.9,-,N/A,,Clear,340,2013-01-01 10:55:00
5:15 AM,9.3,7.5,92,30.21,5.0,NNW,6.9,-,N/A,,Clear,330,2013-01-01 11:15:00
5:35 AM,8.2,5.9,90,30.20,5.0,NNW,6.9,-,N/A,,Clear,330,2013-01-01 11:35:00
5:55 AM,7.3,5.0,90,30.21,5.0,NW,5.8,-,N/A,,Clear,320,2013-01-01 11:55:00
6:15 AM,6.8,4.1,89,30.20,5.0,NNW,5.8,-,N/A,,Clear,330,2013-01-01 12:15:00
6:35 AM,7.3,4.8,89,30.20,4.0,NNW,6.9,-,N/A,,Clear,330,2013-01-01 12:35:00
6:55 AM,6.1,3.2,88,30.21,4.0,NW,6.9,-,N/A,,Clear,320,2013-01-01 12:55:00
7:15 AM,5.5,2.7,88,30.22,5.0,NW,5.8,-,N/A,,Clear,310,2013-01-01 13:15:00
7:35 AM,7.5,5.0,89,30.22,1.0,WNW,4.6,-,N/A,,Overcast,300,2013-01-01 13:35:00
7:55 AM,9.9,7.7,91,30.23,2.0,NW,3.5,-,N/A,,Overcast,310,2013-01-01 13:55:00
8:15 AM,11.1,8.6,90,30.23,0.2,West,3.5,-,N/A,Fog,Light Freezing Fog,280,2013-01-01 14:15:00
8:35 AM,10.8,8.2,90,30.24,0.2,Calm,Calm,-,N/A,Fog,Light Freezing Fog,0,2013-01-01 14:35:00
8:55 AM,11.3,9.1,91,30.25,0.2,West,3.5,-,N/A,Fog,Light Freezing Fog,280,2013-01-01 14:55:00
9:15 AM,11.8,9.5,90,30.25,0.2,Calm,Calm,-,N/A,Fog,Light Freezing Fog,0,2013-01-01 15:15:00
9:35 AM,12.7,10.8,92,30.25,0.2,West,3.5,-,N/A,Fog,Light Freezing Fog,270,2013-01-01 15:35:00
9:55 AM,13.6,11.5,91,30.26,0.2,WSW,3.5,-,N/A,Fog,Light Freezing Fog,250,2013-01-01 15:55:00
10:15 AM,-9999,-9999,N/A,30.26,0.2,Calm,Calm,-,N/A,Fog,Light Freezing Fog,0,2013-01-01 16:15:00
10:35 AM,14.9,13.3,93,30.27,0.2,WSW,3.5,-,N/A,Fog,Light Freezing Fog,250,2013-01-01 16:35:00
10:55 AM,-9999,-9999,N/A,30.27,0.2,SW,4.6,-,N/A,Fog,Fog,230,2013-01-01 16:55:00
11:15 AM,-9999,-9999,N/A,30.26,0.5,SW,3.5,-,N/A,Fog,Fog,230,2013-01-01 17:15:00
11:35 AM,-9999,-9999,N/A,30.25,0.5,SW,4.6,-,N/A,Fog,Fog,220,2013-01-01 17:35:00
11:55 AM,-9999,-9999,N/A,30.24,0.8,SW,8.1,-,N/A,,Overcast,220,2013-01-01 17:55:00
12:15 PM,-9999,-9999,N/A,30.22,1.2,SW,10.4,-,N/A,,Overcast,220,2013-01-01 18:15:00
12:35 PM,-9999,-9999,N/A,30.21,1.8,SW,11.5,-,N/A,,Overcast,220,2013-01-01 18:35:00
12:55 PM,-9999,-9999,N/A,30.20,1.2,SW,10.4,-,N/A,,Overcast,220,2013-01-01 18:55:00
1:15 PM,-9999,-9999,N/A,30.19,3.0,SW,12.7,-,N/A,,Scattered Clouds,220,2013-01-01 19:15:00
1:35 PM,-9999,-9999,N/A,30.18,4.0,SW,12.7,-,N/A,,Haze,220,2013-01-01 19:35:00
1:55 PM,-9999,-9999,N/A,30.17,4.0,SW,12.7,-,N/A,,Haze,220,2013-01-01 19:55:00
2:15 PM,-9999,-9999,N/A,30.16,7.0,SW,13.8,-,N/A,,Clear,220,2013-01-01 20:15:00
2:35 PM,-9999,-9999,N/A,30.16,7.0,SW,12.7,-,N/A,,Clear,220,2013-01-01 20:35:00
2:55 PM,19.8,18.5,95,30.15,7.0,SW,11.5,-,N/A,,Clear,230,2013-01-01 20:55:00
3:15 PM,20.8,17.6,87,30.15,7.0,WSW,13.8,-,N/A,,Clear,240,2013-01-01 21:15:00
3:35 PM,21.2,16.7,83,30.15,10.0,WSW,15.0,-,N/A,,Clear,240,2013-01-01 21:35:00
3:55 PM,21.2,16.7,83,30.15,10.0,SW,10.4,-,N/A,,Clear,230,2013-01-01 21:55:00
4:15 PM,21.2,17.1,84,30.15,10.0,SW,10.4,-,N/A,,Clear,230,2013-01-01 22:15:00
4:35 PM,20.8,16.5,83,30.13,10.0,SW,10.4,-,N/A,,Clear,220,2013-01-01 22:35:00
5:15 PM,19.8,15.8,85,30.13,10.0,SW,10.4,-,N/A,,Clear,220,2013-01-01 23:15:00
5:35 PM,19.4,15.4,85,30.12,10.0,SW,11.5,-,N/A,,Clear,220,2013-01-01 23:35:00
5:55 PM,19.0,15.4,86,30.12,10.0,SW,10.4,-,N/A,,Clear,230,2013-01-01 23:55:00
6:15 PM,17.8,14.4,86,30.12,10.0,SW,9.2,-,N/A,,Clear,230,2013-01-02 00:15:00
6:35 PM,17.6,14.4,87,30.12,10.0,SW,10.4,-,N/A,,Clear,230,2013-01-02 00:35:00
6:55 PM,17.4,14.0,86,30.12,10.0,SW,12.7,-,N/A,,Clear,230,2013-01-02 00:55:00
7:15 PM,17.2,13.8,86,30.12,10.0,WSW,12.7,-,N/A,,Clear,240,2013-01-02 01:15:00
7:35 PM,16.3,13.1,87,30.12,10.0,SW,11.5,-,N/A,,Clear,230,2013-01-02 01:35:00
7:55 PM,16.2,12.9,87,30.12,10.0,WSW,10.4,-,N/A,,Clear,240,2013-01-02 01:55:00
8:15 PM,16.5,13.1,86,30.11,10.0,SW,13.8,-,N/A,,Clear,230,2013-01-02 02:15:00
8:35 PM,16.5,12.9,86,30.11,10.0,WSW,13.8,-,N/A,,Clear,240,2013-01-02 02:35:00
8:55 PM,15.8,12.2,86,30.10,10.0,WSW,13.8,-,N/A,,Clear,240,2013-01-02 02:55:00
9:15 PM,15.1,11.3,85,30.10,10.0,WSW,12.7,-,N/A,,Clear,240,2013-01-02 03:15:00
9:35 PM,14.9,11.3,86,30.09,10.0,SW,13.8,-,N/A,,Clear,230,2013-01-02 03:35:00
9:55 PM,13.8,10.2,86,30.08,10.0,WSW,9.2,-,N/A,,Clear,250,2013-01-02 03:55:00
10:15 PM,13.3,9.7,86,30.08,10.0,WSW,10.4,-,N/A,,Clear,240,2013-01-02 04:15:00
10:35 PM,14.0,10.2,85,30.07,10.0,WSW,10.4,-,N/A,,Clear,240,2013-01-02 04:35:00
10:55 PM,13.8,9.9,84,30.08,10.0,SW,13.8,-,N/A,,Clear,230,2013-01-02 04:55:00
11:15 PM,13.1,9.3,85,30.08,10.0,WSW,11.5,-,N/A,,Clear,240,2013-01-02 05:15:00
11:35 PM,13.8,9.5,83,30.08,10.0,SW,11.5,-,N/A,,Clear,230,2013-01-02 05:35:00
11:55 PM,13.6,9.1,82,30.07,10.0,SW,10.4,-,N/A,,Clear,230,2013-01-02 05:55:00